sensor_id;sensor_type;location;lat;lon;timestamp;temperature;humidity
21815;DHT22;11069;48.988;8.450;2023-07-31T00:02:01;16.40;99.90
21815;DHT22;11069;48.988;8.450;2023-07-31T00:04:26;16.40;99.90
21815;DHT22;11069;48.988;8.450;2023-07-31T00:06:52;16.30;99.90
21815;DHT22;11069;48.988;8.450;2023-07-31T00:09:17;16.20;99.90
21815;DHT22;11069;48.988;8.450;2023-07-31T00:11:43;16.20;99.90
21815;DHT22;11069;48.988;8.450;2023-07-31T00:14:08;16.30;99.90
21815;DHT22;11069;48.988;8.450;2023-07-31T00:16:34;16.30;99.90
21815;DHT22;11069;48.988;8.450;2023-07-31T00:18:59;16.30;99.90
21815;DHT22;11069;48.988;8.450;2023-07-31T00:21:25;16.30;99.90
21815;DHT22;11069;48.988;8.450;2023-07-31T00:23:50;16.20;99.90
21815;DHT22;11069;48.988;8.450;2023-07-31T00:26:16;16.10;99.90
21815;DHT22;11069;48.988;8.450;2023-07-31T00:28:42;16.00;99.90
21815;DHT22;11069;48.988;8.450;2023-07-31T00:31:07;16.00;99.90
21815;DHT22;11069;48.988;8.450;2023-07-31T00:33:35;16.00;99.90
21815;DHT22;11069;48.988;8.450;2023-07-31T00:36:02;15.90;99.90
21815;DHT22;11069;48.988;8.450;2023-07-31T00:38:27;16.00;99.90
21815;DHT22;11069;48.988;8.450;2023-07-31T00:40:53;16.00;99.90
21815;DHT22;11069;48.988;8.450;2023-07-31T00:43:18;16.00;99.90
21815;DHT22;11069;48.988;8.450;2023-07-31T00:45:44;15.90;99.90
21815;DHT22;11069;48.988;8.450;2023-07-31T00:48:10;15.80;99.90
21815;DHT22;11069;48.988;8.450;2023-07-31T00:50:35;15.70;99.90
21815;DHT22;11069;48.988;8.450;2023-07-31T00:53:01;15.60;99.90
21815;DHT22;11069;48.988;8.450;2023-07-31T00:55:27;15.60;99.90
21815;DHT22;11069;48.988;8.450;2023-07-31T00:57:53;15.50;99.90
21815;DHT22;11069;48.988;8.450;2023-07-31T01:00:21;15.50;99.90
21815;DHT22;11069;48.988;8.450;2023-07-31T01:02:47;15.40;99.90
21815;DHT22;11069;48.988;8.450;2023-07-31T01:05:13;15.30;99.90
21815;DHT22;11069;48.988;8.450;2023-07-31T01:07:56;15.20;99.90
21815;DHT22;11069;48.988;8.450;2023-07-31T01:10:27;15.20;99.90
21815;DHT22;11069;48.988;8.450;2023-07-31T01:12:57;15.10;99.90
21815;DHT22;11069;48.988;8.450;2023-07-31T01:15:23;15.10;99.90
21815;DHT22;11069;48.988;8.450;2023-07-31T01:17:48;15.20;99.90
21815;DHT22;11069;48.988;8.450;2023-07-31T01:20:20;15.20;99.90
21815;DHT22;11069;48.988;8.450;2023-07-31T01:25:52;15.10;99.90
21815;DHT22;11069;48.988;8.450;2023-07-31T01:28:38;15.10;99.90
21815;DHT22;11069;48.988;8.450;2023-07-31T01:31:07;15.10;99.90
21815;DHT22;11069;48.988;8.450;2023-07-31T01:33:36;15.20;99.90
21815;DHT22;11069;48.988;8.450;2023-07-31T01:36:02;15.20;99.90
21815;DHT22;11069;48.988;8.450;2023-07-31T01:38:28;15.20;99.90
21815;DHT22;11069;48.988;8.450;2023-07-31T01:40:53;15.20;99.90
21815;DHT22;11069;48.988;8.450;2023-07-31T01:43:19;15.40;99.90
21815;DHT22;11069;48.988;8.450;2023-07-31T01:45:45;15.30;99.90
21815;DHT22;11069;48.988;8.450;2023-07-31T01:48:10;15.20;99.90
21815;DHT22;11069;48.988;8.450;2023-07-31T01:50:36;15.10;99.90
21815;DHT22;11069;48.988;8.450;2023-07-31T01:53:01;15.20;99.90
21815;DHT22;11069;48.988;8.450;2023-07-31T01:55:27;15.10;99.90
21815;DHT22;11069;48.988;8.450;2023-07-31T01:57:53;15.10;99.90
21815;DHT22;11069;48.988;8.450;2023-07-31T02:00:18;15.00;99.90
21815;DHT22;11069;48.988;8.450;2023-07-31T02:02:44;15.10;99.90
21815;DHT22;11069;48.988;8.450;2023-07-31T02:05:10;15.10;99.90
21815;DHT22;11069;48.988;8.450;2023-07-31T02:07:35;15.10;99.90
21815;DHT22;11069;48.988;8.450;2023-07-31T02:10:01;15.10;99.90
21815;DHT22;11069;48.988;8.450;2023-07-31T02:12:26;14.90;99.90
21815;DHT22;11069;48.988;8.450;2023-07-31T02:14:52;14.80;99.90
21815;DHT22;11069;48.988;8.450;2023-07-31T02:17:18;14.80;99.90
21815;DHT22;11069;48.988;8.450;2023-07-31T02:19:43;14.70;99.90
21815;DHT22;11069;48.988;8.450;2023-07-31T02:22:09;14.70;99.90
21815;DHT22;11069;48.988;8.450;2023-07-31T02:24:34;14.70;99.90
21815;DHT22;11069;48.988;8.450;2023-07-31T02:27:00;14.70;99.90
21815;DHT22;11069;48.988;8.450;2023-07-31T02:29:25;14.60;99.90
21815;DHT22;11069;48.988;8.450;2023-07-31T02:31:51;14.60;99.90
21815;DHT22;11069;48.988;8.450;2023-07-31T02:34:16;14.60;99.90
21815;DHT22;11069;48.988;8.450;2023-07-31T02:36:42;14.60;99.90
21815;DHT22;11069;48.988;8.450;2023-07-31T02:39:08;14.60;99.90
21815;DHT22;11069;48.988;8.450;2023-07-31T02:41:33;14.80;99.90
21815;DHT22;11069;48.988;8.450;2023-07-31T02:43:59;14.80;99.90
21815;DHT22;11069;48.988;8.450;2023-07-31T02:46:24;14.80;99.90
21815;DHT22;11069;48.988;8.450;2023-07-31T02:48:50;14.90;99.90
21815;DHT22;11069;48.988;8.450;2023-07-31T02:51:16;14.90;99.90
21815;DHT22;11069;48.988;8.450;2023-07-31T02:53:42;14.90;99.90
21815;DHT22;11069;48.988;8.450;2023-07-31T02:56:08;14.90;99.90
21815;DHT22;11069;48.988;8.450;2023-07-31T02:58:33;14.90;99.90
21815;DHT22;11069;48.988;8.450;2023-07-31T03:00:59;14.90;99.90
21815;DHT22;11069;48.988;8.450;2023-07-31T03:03:24;15.00;99.90
21815;DHT22;11069;48.988;8.450;2023-07-31T03:05:50;15.00;99.90
21815;DHT22;11069;48.988;8.450;2023-07-31T03:08:15;15.00;99.90
21815;DHT22;11069;48.988;8.450;2023-07-31T03:10:41;14.90;99.90
21815;DHT22;11069;48.988;8.450;2023-07-31T03:13:06;14.90;99.90
21815;DHT22;11069;48.988;8.450;2023-07-31T03:15:32;14.90;99.90
21815;DHT22;11069;48.988;8.450;2023-07-31T03:17:58;15.00;99.90
21815;DHT22;11069;48.988;8.450;2023-07-31T03:20:23;15.00;99.90
21815;DHT22;11069;48.988;8.450;2023-07-31T03:22:49;14.90;99.90
21815;DHT22;11069;48.988;8.450;2023-07-31T03:25:15;14.90;99.90
21815;DHT22;11069;48.988;8.450;2023-07-31T03:27:40;14.90;99.90
21815;DHT22;11069;48.988;8.450;2023-07-31T03:30:06;15.00;99.90
21815;DHT22;11069;48.988;8.450;2023-07-31T03:32:32;14.90;99.90
21815;DHT22;11069;48.988;8.450;2023-07-31T03:34:58;15.00;99.90
21815;DHT22;11069;48.988;8.450;2023-07-31T03:37:24;14.90;99.90
21815;DHT22;11069;48.988;8.450;2023-07-31T03:39:49;14.80;99.90
21815;DHT22;11069;48.988;8.450;2023-07-31T03:42:15;14.80;99.90
21815;DHT22;11069;48.988;8.450;2023-07-31T03:44:40;14.70;99.90
21815;DHT22;11069;48.988;8.450;2023-07-31T03:47:06;14.70;99.90
21815;DHT22;11069;48.988;8.450;2023-07-31T03:49:31;14.70;99.90
21815;DHT22;11069;48.988;8.450;2023-07-31T03:51:57;14.70;99.90
21815;DHT22;11069;48.988;8.450;2023-07-31T03:54:22;14.70;99.90
21815;DHT22;11069;48.988;8.450;2023-07-31T03:56:48;14.70;99.90
21815;DHT22;11069;48.988;8.450;2023-07-31T03:59:14;14.70;99.90
21815;DHT22;11069;48.988;8.450;2023-07-31T04:01:39;14.80;99.90
21815;DHT22;11069;48.988;8.450;2023-07-31T04:04:05;14.90;99.90
21815;DHT22;11069;48.988;8.450;2023-07-31T04:06:30;14.90;99.90
21815;DHT22;11069;48.988;8.450;2023-07-31T04:08:56;14.90;99.90
21815;DHT22;11069;48.988;8.450;2023-07-31T04:11:21;14.90;99.90
21815;DHT22;11069;48.988;8.450;2023-07-31T04:13:47;14.90;99.90
21815;DHT22;11069;48.988;8.450;2023-07-31T04:16:13;15.00;99.90
21815;DHT22;11069;48.988;8.450;2023-07-31T04:18:38;15.00;99.90
21815;DHT22;11069;48.988;8.450;2023-07-31T04:21:04;15.10;99.90
21815;DHT22;11069;48.988;8.450;2023-07-31T04:23:29;15.10;99.90
21815;DHT22;11069;48.988;8.450;2023-07-31T04:25:55;15.20;99.90
21815;DHT22;11069;48.988;8.450;2023-07-31T04:28:21;15.20;99.90
21815;DHT22;11069;48.988;8.450;2023-07-31T04:30:47;15.20;99.90
21815;DHT22;11069;48.988;8.450;2023-07-31T04:33:13;15.30;99.90
21815;DHT22;11069;48.988;8.450;2023-07-31T04:35:38;15.20;99.90
21815;DHT22;11069;48.988;8.450;2023-07-31T04:38:04;15.20;99.90
21815;DHT22;11069;48.988;8.450;2023-07-31T04:40:29;15.20;99.90
21815;DHT22;11069;48.988;8.450;2023-07-31T04:42:55;15.20;99.90
21815;DHT22;11069;48.988;8.450;2023-07-31T04:45:20;15.30;99.90
21815;DHT22;11069;48.988;8.450;2023-07-31T04:47:46;15.20;99.90
21815;DHT22;11069;48.988;8.450;2023-07-31T04:50:11;15.20;99.90
21815;DHT22;11069;48.988;8.450;2023-07-31T04:52:37;15.20;99.90
21815;DHT22;11069;48.988;8.450;2023-07-31T04:55:03;15.30;99.90
21815;DHT22;11069;48.988;8.450;2023-07-31T04:57:28;15.20;99.90
21815;DHT22;11069;48.988;8.450;2023-07-31T04:59:54;15.10;99.90
21815;DHT22;11069;48.988;8.450;2023-07-31T05:02:19;15.20;99.90
21815;DHT22;11069;48.988;8.450;2023-07-31T05:04:45;15.10;99.90
21815;DHT22;11069;48.988;8.450;2023-07-31T05:07:10;15.20;99.90
21815;DHT22;11069;48.988;8.450;2023-07-31T05:09:36;15.20;99.90
21815;DHT22;11069;48.988;8.450;2023-07-31T05:12:01;15.30;99.90
21815;DHT22;11069;48.988;8.450;2023-07-31T05:14:27;15.30;99.90
21815;DHT22;11069;48.988;8.450;2023-07-31T05:16:53;15.30;99.90
21815;DHT22;11069;48.988;8.450;2023-07-31T05:19:18;15.40;99.90
21815;DHT22;11069;48.988;8.450;2023-07-31T05:21:44;15.50;99.90
21815;DHT22;11069;48.988;8.450;2023-07-31T05:24:10;15.50;99.90
21815;DHT22;11069;48.988;8.450;2023-07-31T05:26:36;15.60;99.90
21815;DHT22;11069;48.988;8.450;2023-07-31T05:29:02;15.70;99.90
21815;DHT22;11069;48.988;8.450;2023-07-31T05:31:27;15.90;99.90
21815;DHT22;11069;48.988;8.450;2023-07-31T05:33:53;16.20;99.90
21815;DHT22;11069;48.988;8.450;2023-07-31T05:36:19;16.40;99.90
21815;DHT22;11069;48.988;8.450;2023-07-31T05:38:44;16.60;99.90
21815;DHT22;11069;48.988;8.450;2023-07-31T05:41:11;16.90;99.90
21815;DHT22;11069;48.988;8.450;2023-07-31T05:43:37;17.30;99.90
21815;DHT22;11069;48.988;8.450;2023-07-31T05:46:03;17.50;99.90
21815;DHT22;11069;48.988;8.450;2023-07-31T05:48:28;17.80;99.90
21815;DHT22;11069;48.988;8.450;2023-07-31T05:50:54;17.90;99.90
21815;DHT22;11069;48.988;8.450;2023-07-31T05:53:19;18.00;99.90
21815;DHT22;11069;48.988;8.450;2023-07-31T05:55:45;18.00;99.90
21815;DHT22;11069;48.988;8.450;2023-07-31T05:58:10;18.00;99.90
21815;DHT22;11069;48.988;8.450;2023-07-31T06:00:36;18.10;99.90
21815;DHT22;11069;48.988;8.450;2023-07-31T06:03:02;18.10;99.90
21815;DHT22;11069;48.988;8.450;2023-07-31T06:05:28;18.20;99.90
21815;DHT22;11069;48.988;8.450;2023-07-31T06:07:54;18.20;99.90
21815;DHT22;11069;48.988;8.450;2023-07-31T06:10:20;18.30;99.90
21815;DHT22;11069;48.988;8.450;2023-07-31T06:12:46;18.30;99.90
21815;DHT22;11069;48.988;8.450;2023-07-31T06:15:11;18.40;99.90
21815;DHT22;11069;48.988;8.450;2023-07-31T06:17:37;18.50;99.90
21815;DHT22;11069;48.988;8.450;2023-07-31T06:20:03;18.60;99.90
21815;DHT22;11069;48.988;8.450;2023-07-31T06:22:31;18.70;99.90
21815;DHT22;11069;48.988;8.450;2023-07-31T06:24:57;18.70;99.90
21815;DHT22;11069;48.988;8.450;2023-07-31T06:27:23;18.70;99.90
21815;DHT22;11069;48.988;8.450;2023-07-31T06:29:48;18.80;99.90
21815;DHT22;11069;48.988;8.450;2023-07-31T06:32:14;18.80;99.90
21815;DHT22;11069;48.988;8.450;2023-07-31T06:34:40;18.90;99.90
21815;DHT22;11069;48.988;8.450;2023-07-31T06:37:05;19.10;99.90
21815;DHT22;11069;48.988;8.450;2023-07-31T06:39:31;19.40;99.90
21815;DHT22;11069;48.988;8.450;2023-07-31T06:41:56;19.50;99.90
21815;DHT22;11069;48.988;8.450;2023-07-31T06:44:22;19.60;99.90
21815;DHT22;11069;48.988;8.450;2023-07-31T06:46:48;19.70;99.90
21815;DHT22;11069;48.988;8.450;2023-07-31T06:49:13;19.80;99.90
21815;DHT22;11069;48.988;8.450;2023-07-31T06:51:40;19.90;99.90
21815;DHT22;11069;48.988;8.450;2023-07-31T06:54:07;19.90;99.90
21815;DHT22;11069;48.988;8.450;2023-07-31T06:56:33;19.90;99.90
21815;DHT22;11069;48.988;8.450;2023-07-31T06:58:59;19.80;99.90
21815;DHT22;11069;48.988;8.450;2023-07-31T07:01:24;19.80;99.90
21815;DHT22;11069;48.988;8.450;2023-07-31T07:03:50;19.80;99.90
21815;DHT22;11069;48.988;8.450;2023-07-31T07:06:18;19.70;99.90
21815;DHT22;11069;48.988;8.450;2023-07-31T07:08:44;19.70;99.90
21815;DHT22;11069;48.988;8.450;2023-07-31T07:11:10;19.50;99.90
21815;DHT22;11069;48.988;8.450;2023-07-31T07:13:35;19.50;99.90
21815;DHT22;11069;48.988;8.450;2023-07-31T07:16:01;19.60;99.90
21815;DHT22;11069;48.988;8.450;2023-07-31T07:18:26;19.60;99.90
21815;DHT22;11069;48.988;8.450;2023-07-31T07:20:53;19.60;99.90
21815;DHT22;11069;48.988;8.450;2023-07-31T07:23:20;19.80;99.90
21815;DHT22;11069;48.988;8.450;2023-07-31T07:25:46;19.80;99.90
21815;DHT22;11069;48.988;8.450;2023-07-31T07:28:13;19.90;99.90
21815;DHT22;11069;48.988;8.450;2023-07-31T07:30:39;20.00;99.90
21815;DHT22;11069;48.988;8.450;2023-07-31T07:33:04;20.00;99.90
21815;DHT22;11069;48.988;8.450;2023-07-31T07:35:30;20.10;99.90
21815;DHT22;11069;48.988;8.450;2023-07-31T07:37:58;20.30;99.90
21815;DHT22;11069;48.988;8.450;2023-07-31T07:40:23;20.50;99.90
21815;DHT22;11069;48.988;8.450;2023-07-31T07:42:49;20.60;99.90
21815;DHT22;11069;48.988;8.450;2023-07-31T07:45:15;20.50;99.90
21815;DHT22;11069;48.988;8.450;2023-07-31T07:47:41;20.50;99.90
21815;DHT22;11069;48.988;8.450;2023-07-31T07:50:07;20.30;99.90
21815;DHT22;11069;48.988;8.450;2023-07-31T07:52:33;20.30;99.90
21815;DHT22;11069;48.988;8.450;2023-07-31T07:54:59;20.40;99.90
21815;DHT22;11069;48.988;8.450;2023-07-31T07:57:25;20.60;99.90
21815;DHT22;11069;48.988;8.450;2023-07-31T07:59:51;20.70;99.90
21815;DHT22;11069;48.988;8.450;2023-07-31T08:02:16;20.80;99.90
21815;DHT22;11069;48.988;8.450;2023-07-31T08:04:42;20.80;99.90
21815;DHT22;11069;48.988;8.450;2023-07-31T08:07:07;20.70;99.90
21815;DHT22;11069;48.988;8.450;2023-07-31T08:09:35;20.60;99.90
21815;DHT22;11069;48.988;8.450;2023-07-31T08:12:01;20.60;99.90
21815;DHT22;11069;48.988;8.450;2023-07-31T08:14:28;20.70;99.90
21815;DHT22;11069;48.988;8.450;2023-07-31T08:16:54;20.70;99.90
21815;DHT22;11069;48.988;8.450;2023-07-31T08:19:19;20.60;99.90
21815;DHT22;11069;48.988;8.450;2023-07-31T08:21:45;20.70;99.90
21815;DHT22;11069;48.988;8.450;2023-07-31T08:24:11;20.80;99.90
21815;DHT22;11069;48.988;8.450;2023-07-31T08:26:36;20.90;99.90
21815;DHT22;11069;48.988;8.450;2023-07-31T08:29:02;20.80;99.90
21815;DHT22;11069;48.988;8.450;2023-07-31T08:31:27;20.90;99.90
21815;DHT22;11069;48.988;8.450;2023-07-31T08:33:54;20.80;99.90
21815;DHT22;11069;48.988;8.450;2023-07-31T08:36:20;20.80;99.90
21815;DHT22;11069;48.988;8.450;2023-07-31T08:38:46;21.00;99.90
21815;DHT22;11069;48.988;8.450;2023-07-31T08:41:11;21.10;99.90
21815;DHT22;11069;48.988;8.450;2023-07-31T08:43:39;21.30;99.90
21815;DHT22;11069;48.988;8.450;2023-07-31T08:46:05;21.50;99.90
21815;DHT22;11069;48.988;8.450;2023-07-31T08:48:32;21.70;99.90
21815;DHT22;11069;48.988;8.450;2023-07-31T08:50:58;21.90;99.90
21815;DHT22;11069;48.988;8.450;2023-07-31T08:53:24;21.90;99.90
21815;DHT22;11069;48.988;8.450;2023-07-31T08:55:49;22.40;99.90
21815;DHT22;11069;48.988;8.450;2023-07-31T08:58:17;22.50;99.90
21815;DHT22;11069;48.988;8.450;2023-07-31T09:00:43;22.50;99.90
21815;DHT22;11069;48.988;8.450;2023-07-31T09:03:14;22.40;99.90
21815;DHT22;11069;48.988;8.450;2023-07-31T09:05:46;22.30;99.90
21815;DHT22;11069;48.988;8.450;2023-07-31T09:08:13;22.60;99.90
21815;DHT22;11069;48.988;8.450;2023-07-31T09:10:46;22.90;99.60
21815;DHT22;11069;48.988;8.450;2023-07-31T09:13:12;22.60;99.40
21815;DHT22;11069;48.988;8.450;2023-07-31T09:15:39;22.80;99.90
21815;DHT22;11069;48.988;8.450;2023-07-31T09:18:06;23.00;99.40
21815;DHT22;11069;48.988;8.450;2023-07-31T09:20:32;23.20;99.00
21815;DHT22;11069;48.988;8.450;2023-07-31T09:23:14;23.50;98.40
21815;DHT22;11069;48.988;8.450;2023-07-31T09:25:43;23.70;97.50
21815;DHT22;11069;48.988;8.450;2023-07-31T09:28:11;23.70;98.10
21815;DHT22;11069;48.988;8.450;2023-07-31T09:33:12;24.00;99.20
21815;DHT22;11069;48.988;8.450;2023-07-31T09:35:38;24.40;98.50
21815;DHT22;11069;48.988;8.450;2023-07-31T09:38:08;24.60;98.30
21815;DHT22;11069;48.988;8.450;2023-07-31T09:40:39;24.30;96.80
21815;DHT22;11069;48.988;8.450;2023-07-31T09:43:10;24.10;96.70
21815;DHT22;11069;48.988;8.450;2023-07-31T09:45:39;23.70;97.20
21815;DHT22;11069;48.988;8.450;2023-07-31T09:48:09;23.90;98.30
21815;DHT22;11069;48.988;8.450;2023-07-31T09:50:40;24.10;97.60
21815;DHT22;11069;48.988;8.450;2023-07-31T09:53:07;24.20;97.40
21815;DHT22;11069;48.988;8.450;2023-07-31T09:55:33;24.10;96.40
21815;DHT22;11069;48.988;8.450;2023-07-31T09:57:59;24.00;96.30
21815;DHT22;11069;48.988;8.450;2023-07-31T10:00:29;23.80;96.70
21815;DHT22;11069;48.988;8.450;2023-07-31T10:02:58;23.80;97.30
21815;DHT22;11069;48.988;8.450;2023-07-31T10:05:30;24.00;97.50
21815;DHT22;11069;48.988;8.450;2023-07-31T10:07:57;23.90;96.50
21815;DHT22;11069;48.988;8.450;2023-07-31T10:10:22;23.60;97.00
21815;DHT22;11069;48.988;8.450;2023-07-31T10:12:50;23.00;97.20
21815;DHT22;11069;48.988;8.450;2023-07-31T10:15:17;23.10;98.50
21815;DHT22;11069;48.988;8.450;2023-07-31T10:17:44;22.90;98.00
21815;DHT22;11069;48.988;8.450;2023-07-31T10:20:10;22.90;98.10
21815;DHT22;11069;48.988;8.450;2023-07-31T10:22:36;22.90;97.80
21815;DHT22;11069;48.988;8.450;2023-07-31T10:25:02;23.10;99.60
21815;DHT22;11069;48.988;8.450;2023-07-31T10:27:28;23.30;98.40
21815;DHT22;11069;48.988;8.450;2023-07-31T10:29:55;23.60;97.60
21815;DHT22;11069;48.988;8.450;2023-07-31T10:32:22;23.50;97.30
21815;DHT22;11069;48.988;8.450;2023-07-31T10:34:48;23.30;97.70
21815;DHT22;11069;48.988;8.450;2023-07-31T10:37:38;23.00;97.40
21815;DHT22;11069;48.988;8.450;2023-07-31T10:40:12;22.70;98.60
21815;DHT22;11069;48.988;8.450;2023-07-31T10:42:49;22.60;98.70
21815;DHT22;11069;48.988;8.450;2023-07-31T10:45:25;22.70;99.80
21815;DHT22;11069;48.988;8.450;2023-07-31T10:48:12;22.70;98.90
21815;DHT22;11069;48.988;8.450;2023-07-31T10:50:55;22.90;99.50
21815;DHT22;11069;48.988;8.450;2023-07-31T10:53:25;23.00;98.10
21815;DHT22;11069;48.988;8.450;2023-07-31T10:55:51;22.90;99.00
21815;DHT22;11069;48.988;8.450;2023-07-31T10:58:19;22.80;99.30
21815;DHT22;11069;48.988;8.450;2023-07-31T11:00:45;22.80;99.90
21815;DHT22;11069;48.988;8.450;2023-07-31T11:08:25;23.50;99.00
21815;DHT22;11069;48.988;8.450;2023-07-31T11:11:08;24.10;97.90
21815;DHT22;11069;48.988;8.450;2023-07-31T11:13:44;24.50;98.20
21815;DHT22;11069;48.988;8.450;2023-07-31T11:16:13;24.80;96.00
21815;DHT22;11069;48.988;8.450;2023-07-31T11:18:46;24.80;96.20
21815;DHT22;11069;48.988;8.450;2023-07-31T11:21:20;24.70;95.00
21815;DHT22;11069;48.988;8.450;2023-07-31T11:23:51;24.80;95.90
21815;DHT22;11069;48.988;8.450;2023-07-31T11:26:18;24.60;95.70
21815;DHT22;11069;48.988;8.450;2023-07-31T11:28:46;24.50;96.30
21815;DHT22;11069;48.988;8.450;2023-07-31T11:31:12;25.00;96.10
21815;DHT22;11069;48.988;8.450;2023-07-31T11:33:38;25.50;95.60
21815;DHT22;11069;48.988;8.450;2023-07-31T11:36:04;25.40;94.00
21815;DHT22;11069;48.988;8.450;2023-07-31T11:38:33;25.40;95.30
21815;DHT22;11069;48.988;8.450;2023-07-31T11:41:03;25.60;93.90
21815;DHT22;11069;48.988;8.450;2023-07-31T11:43:30;25.10;94.00
21815;DHT22;11069;48.988;8.450;2023-07-31T11:45:57;24.80;95.50
21815;DHT22;11069;48.988;8.450;2023-07-31T11:48:34;24.60;95.30
21815;DHT22;11069;48.988;8.450;2023-07-31T11:51:03;24.50;96.30
21815;DHT22;11069;48.988;8.450;2023-07-31T11:53:33;24.60;96.70
21815;DHT22;11069;48.988;8.450;2023-07-31T11:56:01;25.30;96.50
21815;DHT22;11069;48.988;8.450;2023-07-31T11:58:30;25.40;96.20
21815;DHT22;11069;48.988;8.450;2023-07-31T12:00:56;25.50;94.20
21815;DHT22;11069;48.988;8.450;2023-07-31T12:03:22;25.10;95.00
21815;DHT22;11069;48.988;8.450;2023-07-31T12:05:48;24.80;95.00
21815;DHT22;11069;48.988;8.450;2023-07-31T12:08:13;24.70;95.30
21815;DHT22;11069;48.988;8.450;2023-07-31T12:10:39;25.40;95.60
21815;DHT22;11069;48.988;8.450;2023-07-31T12:13:10;25.90;95.00
21815;DHT22;11069;48.988;8.450;2023-07-31T12:15:41;25.50;94.70
21815;DHT22;11069;48.988;8.450;2023-07-31T12:18:15;25.30;95.60
21815;DHT22;11069;48.988;8.450;2023-07-31T12:20:46;25.40;95.20
21815;DHT22;11069;48.988;8.450;2023-07-31T12:23:20;26.00;94.60
21815;DHT22;11069;48.988;8.450;2023-07-31T12:26:13;25.90;95.50
21815;DHT22;11069;48.988;8.450;2023-07-31T12:28:46;26.10;94.00
21815;DHT22;11069;48.988;8.450;2023-07-31T12:31:17;25.90;95.70
21815;DHT22;11069;48.988;8.450;2023-07-31T12:33:44;26.30;93.90
21815;DHT22;11069;48.988;8.450;2023-07-31T12:36:12;26.00;93.90
21815;DHT22;11069;48.988;8.450;2023-07-31T12:38:38;25.60;94.70
21815;DHT22;11069;48.988;8.450;2023-07-31T12:41:04;25.00;94.10
21815;DHT22;11069;48.988;8.450;2023-07-31T12:43:32;24.70;95.00
21815;DHT22;11069;48.988;8.450;2023-07-31T12:45:58;24.40;99.10
21815;DHT22;11069;48.988;8.450;2023-07-31T12:48:24;24.40;97.60
21815;DHT22;11069;48.988;8.450;2023-07-31T12:50:50;24.30;96.50
21815;DHT22;11069;48.988;8.450;2023-07-31T12:53:15;24.20;96.30
21815;DHT22;11069;48.988;8.450;2023-07-31T12:55:41;24.20;96.70
21815;DHT22;11069;48.988;8.450;2023-07-31T12:58:07;23.90;96.60
21815;DHT22;11069;48.988;8.450;2023-07-31T13:00:33;24.00;97.10
21815;DHT22;11069;48.988;8.450;2023-07-31T13:02:59;24.10;96.60
21815;DHT22;11069;48.988;8.450;2023-07-31T13:05:25;24.30;97.20
21815;DHT22;11069;48.988;8.450;2023-07-31T13:07:51;24.90;96.70
21815;DHT22;11069;48.988;8.450;2023-07-31T13:10:17;25.30;96.10
21815;DHT22;11069;48.988;8.450;2023-07-31T13:12:42;25.20;95.10
21815;DHT22;11069;48.988;8.450;2023-07-31T13:15:08;25.00;97.30
21815;DHT22;11069;48.988;8.450;2023-07-31T13:17:34;25.00;96.50
21815;DHT22;11069;48.988;8.450;2023-07-31T13:20:00;24.90;97.30
21815;DHT22;11069;48.988;8.450;2023-07-31T13:22:26;24.80;96.10
21815;DHT22;11069;48.988;8.450;2023-07-31T13:24:52;24.70;95.70
21815;DHT22;11069;48.988;8.450;2023-07-31T13:27:17;24.50;96.20
21815;DHT22;11069;48.988;8.450;2023-07-31T13:29:48;24.50;96.50
21815;DHT22;11069;48.988;8.450;2023-07-31T13:32:14;24.50;96.70
21815;DHT22;11069;48.988;8.450;2023-07-31T13:34:39;24.50;96.90
21815;DHT22;11069;48.988;8.450;2023-07-31T13:37:05;24.50;96.90
21815;DHT22;11069;48.988;8.450;2023-07-31T13:39:33;24.20;96.80
21815;DHT22;11069;48.988;8.450;2023-07-31T13:41:59;24.20;97.60
21815;DHT22;11069;48.988;8.450;2023-07-31T13:44:25;24.20;97.60
21815;DHT22;11069;48.988;8.450;2023-07-31T13:46:51;24.00;96.60
21815;DHT22;11069;48.988;8.450;2023-07-31T13:49:17;23.80;97.70
21815;DHT22;11069;48.988;8.450;2023-07-31T13:51:42;23.50;97.60
21815;DHT22;11069;48.988;8.450;2023-07-31T13:54:08;23.50;98.00
21815;DHT22;11069;48.988;8.450;2023-07-31T13:56:33;23.60;98.30
21815;DHT22;11069;48.988;8.450;2023-07-31T13:58:59;23.70;97.00
21815;DHT22;11069;48.988;8.450;2023-07-31T14:01:26;23.90;97.00
21815;DHT22;11069;48.988;8.450;2023-07-31T14:03:52;23.90;97.50
21815;DHT22;11069;48.988;8.450;2023-07-31T14:06:17;24.10;97.70
21815;DHT22;11069;48.988;8.450;2023-07-31T14:08:43;24.20;97.20
21815;DHT22;11069;48.988;8.450;2023-07-31T14:11:09;24.10;97.00
21815;DHT22;11069;48.988;8.450;2023-07-31T14:13:34;24.00;97.40
21815;DHT22;11069;48.988;8.450;2023-07-31T14:16:00;23.70;98.50
21815;DHT22;11069;48.988;8.450;2023-07-31T14:18:25;23.60;99.50
21815;DHT22;11069;48.988;8.450;2023-07-31T14:20:51;23.70;99.00
21815;DHT22;11069;48.988;8.450;2023-07-31T14:23:17;23.70;98.30
21815;DHT22;11069;48.988;8.450;2023-07-31T14:25:42;23.80;98.40
21815;DHT22;11069;48.988;8.450;2023-07-31T14:28:08;23.60;98.30
21815;DHT22;11069;48.988;8.450;2023-07-31T14:30:33;23.50;98.00
21815;DHT22;11069;48.988;8.450;2023-07-31T14:32:59;23.40;99.00
21815;DHT22;11069;48.988;8.450;2023-07-31T14:35:27;23.50;99.10
21815;DHT22;11069;48.988;8.450;2023-07-31T14:37:52;23.50;99.10
21815;DHT22;11069;48.988;8.450;2023-07-31T14:40:18;23.70;99.70
21815;DHT22;11069;48.988;8.450;2023-07-31T14:42:43;23.70;99.90
21815;DHT22;11069;48.988;8.450;2023-07-31T14:45:09;23.90;99.90
21815;DHT22;11069;48.988;8.450;2023-07-31T14:47:36;24.10;99.20
21815;DHT22;11069;48.988;8.450;2023-07-31T14:50:02;24.30;97.10
21815;DHT22;11069;48.988;8.450;2023-07-31T14:52:28;24.40;97.10
21815;DHT22;11069;48.988;8.450;2023-07-31T14:54:53;24.50;96.80
21815;DHT22;11069;48.988;8.450;2023-07-31T14:57:19;24.50;97.70
21815;DHT22;11069;48.988;8.450;2023-07-31T14:59:45;24.50;97.90
21815;DHT22;11069;48.988;8.450;2023-07-31T15:02:11;24.60;97.90
21815;DHT22;11069;48.988;8.450;2023-07-31T15:04:37;24.70;96.60
21815;DHT22;11069;48.988;8.450;2023-07-31T15:07:03;24.70;96.80
21815;DHT22;11069;48.988;8.450;2023-07-31T15:09:29;24.70;97.40
21815;DHT22;11069;48.988;8.450;2023-07-31T15:11:56;24.80;96.90
21815;DHT22;11069;48.988;8.450;2023-07-31T15:14:22;24.70;96.50
21815;DHT22;11069;48.988;8.450;2023-07-31T15:16:47;24.80;97.20
21815;DHT22;11069;48.988;8.450;2023-07-31T15:19:14;25.10;97.80
21815;DHT22;11069;48.988;8.450;2023-07-31T15:21:39;25.40;96.50
21815;DHT22;11069;48.988;8.450;2023-07-31T15:24:05;25.80;96.80
21815;DHT22;11069;48.988;8.450;2023-07-31T15:26:31;25.60;96.10
21815;DHT22;11069;48.988;8.450;2023-07-31T15:29:02;25.40;96.50
21815;DHT22;11069;48.988;8.450;2023-07-31T15:31:31;25.40;97.30
21815;DHT22;11069;48.988;8.450;2023-07-31T15:33:56;25.40;97.60
21815;DHT22;11069;48.988;8.450;2023-07-31T15:36:22;25.50;97.70
21815;DHT22;11069;48.988;8.450;2023-07-31T15:38:48;25.40;97.10